createdAt,value
2022-11-24T00:01:25.533Z,2.23
2022-11-24T00:03:55.191Z,2.23
2022-11-24T00:06:22.029Z,2.02
2022-11-24T00:08:48.793Z,2.14
2022-11-24T00:11:19.095Z,2.16
2022-11-24T00:13:46.175Z,2.11
2022-11-24T00:16:19.056Z,2.15
2022-11-24T00:18:47.789Z,2.12
2022-11-24T00:21:15.996Z,2.12
2022-11-24T00:23:43.316Z,2.20
2022-11-24T00:26:14.232Z,2.18
2022-11-24T00:28:42.253Z,2.24
2022-11-24T00:31:22.844Z,2.20
2022-11-24T00:33:51.418Z,2.06
2022-11-24T00:36:19.567Z,2.09
2022-11-24T00:38:46.846Z,2.03
2022-11-24T00:41:14.144Z,2.14
2022-11-24T00:43:40.722Z,2.06
2022-11-24T00:46:07.574Z,2.07
2022-11-24T00:48:34.581Z,2.08
2022-11-24T00:51:03.671Z,2.06
2022-11-24T00:53:30.751Z,2.09
2022-11-24T00:55:57.330Z,2.06
2022-11-24T00:58:25.097Z,2.04
2022-11-24T01:00:52.856Z,2.02
2022-11-24T01:03:20.662Z,2.05
2022-11-24T01:05:47.238Z,2.05
2022-11-24T01:08:13.984Z,1.95
2022-11-24T01:10:40.859Z,2.03
2022-11-24T01:13:07.564Z,2.02
2022-11-24T01:15:36.310Z,2.07
2022-11-24T01:18:03.561Z,2.21
2022-11-24T01:20:30.619Z,2.23
2022-11-24T01:22:57.387Z,2.36
2022-11-24T01:25:24.480Z,2.38
2022-11-24T01:27:51.110Z,2.41
2022-11-24T01:30:17.795Z,2.36
2022-11-24T01:32:44.410Z,2.36
2022-11-24T01:35:10.986Z,2.38
2022-11-24T01:37:37.544Z,2.18
2022-11-24T01:40:04.545Z,1.98
2022-11-24T01:42:43.634Z,1.79
2022-11-24T01:45:28.224Z,1.74
2022-11-24T01:47:55.958Z,1.55
2022-11-24T01:50:23.089Z,1.52
2022-11-24T01:52:54.080Z,1.56
2022-11-24T01:55:25.758Z,1.51
2022-11-24T01:57:59.530Z,1.52
2022-11-24T02:00:26.436Z,1.47
2022-11-24T02:02:53.607Z,1.39
2022-11-24T02:05:31.105Z,1.38
2022-11-24T02:08:01.722Z,1.18
2022-11-24T02:10:29.779Z,1.31
2022-11-24T02:12:59.031Z,1.13
2022-11-24T02:15:26.110Z,0.98
2022-11-24T02:17:52.699Z,1.03
2022-11-24T02:20:19.720Z,0.81
2022-11-24T02:23:08.276Z,0.67
2022-11-24T02:25:55.769Z,0.69
2022-11-24T02:28:24.651Z,0.59
2022-11-24T02:30:52.939Z,0.47
2022-11-24T02:33:21.235Z,0.44
2022-11-24T02:35:48.223Z,0.47
2022-11-24T02:38:15.084Z,0.44
2022-11-24T02:40:46.321Z,0.35
2022-11-24T02:43:18.007Z,0.35
2022-11-24T02:45:44.550Z,0.37
2022-11-24T02:48:11.418Z,0.42
2022-11-24T02:50:38.029Z,0.48
2022-11-24T02:53:04.606Z,0.39
2022-11-24T02:55:31.276Z,0.31
2022-11-24T02:57:57.878Z,0.26
2022-11-24T03:00:24.721Z,0.24
2022-11-24T03:02:51.445Z,0.39
2022-11-24T03:05:18.338Z,0.34
2022-11-24T03:07:44.962Z,0.24
2022-11-24T03:10:12.073Z,0.18
2022-11-24T03:12:38.844Z,0.20
2022-11-24T03:15:06.424Z,0.26
2022-11-24T03:17:32.974Z,0.30
2022-11-24T03:20:04.295Z,0.38
2022-11-24T03:22:31.586Z,0.34
2022-11-24T03:24:58.119Z,0.40
2022-11-24T03:27:24.906Z,0.37
2022-11-24T03:29:51.456Z,0.36
2022-11-24T03:32:18.103Z,0.39
2022-11-24T03:34:45.025Z,0.41
2022-11-24T03:37:11.661Z,0.46
2022-11-24T03:39:38.289Z,0.39
2022-11-24T03:42:04.990Z,0.33
2022-11-24T03:44:31.697Z,0.35
2022-11-24T03:46:58.426Z,0.22
2022-11-24T03:49:25.073Z,0.23
2022-11-24T03:51:51.603Z,0.25
2022-11-24T03:54:18.189Z,0.22
2022-11-24T03:56:44.779Z,0.22
2022-11-24T03:59:11.301Z,0.10
2022-11-24T04:01:37.961Z,0.02
2022-11-24T04:04:04.955Z,0.06
2022-11-24T04:06:31.645Z,0.07
2022-11-24T04:09:00.202Z,0.01
2022-11-24T04:11:26.844Z,0.01
2022-11-24T04:13:54.031Z,-0.04
2022-11-24T04:16:20.624Z,-0.04
2022-11-24T04:18:47.334Z,-0.07
2022-11-24T04:21:13.919Z,0.07
2022-11-24T04:23:40.457Z,-0.05
2022-11-24T04:26:07.042Z,-0.13
2022-11-24T04:28:33.579Z,-0.07
2022-11-24T04:31:04.397Z,-0.11
2022-11-24T04:33:31.392Z,-0.18
2022-11-24T04:35:58.315Z,-0.14
2022-11-24T04:39:23.332Z,-0.27
2022-11-24T04:41:11.557Z,-0.35
2022-11-24T04:43:40.758Z,-0.32
2022-11-24T04:46:10.384Z,-0.19
2022-11-24T04:48:37.261Z,-0.38
2022-11-24T04:51:07.158Z,-0.40
2022-11-24T04:53:33.870Z,-0.36
2022-11-24T04:56:05.201Z,-0.49
2022-11-24T04:58:31.931Z,-0.43
2022-11-24T05:00:58.433Z,-0.43
2022-11-24T05:03:25.083Z,-0.54
2022-11-24T05:05:51.667Z,-0.53
2022-11-24T05:08:18.174Z,-0.55
2022-11-24T05:10:44.768Z,-0.47
2022-11-24T05:13:12.922Z,-0.60
2022-11-24T05:15:41.407Z,-0.53
2022-11-24T05:18:12.137Z,-0.63
2022-11-24T05:20:38.717Z,-0.77
2022-11-24T05:23:06.995Z,-0.70
2022-11-24T05:25:35.130Z,-0.51
2022-11-24T05:28:06.550Z,-0.57
2022-11-24T05:30:33.163Z,-0.70
2022-11-24T05:33:05.673Z,-0.73
2022-11-24T05:35:32.483Z,-0.66
2022-11-24T05:37:59.030Z,-0.58
2022-11-24T05:40:25.663Z,-0.52
2022-11-24T05:42:52.275Z,-0.63
2022-11-24T05:45:21.244Z,-0.76
2022-11-24T05:47:49.534Z,-0.66
2022-11-24T05:50:18.328Z,-0.85
2022-11-24T05:52:45.001Z,-0.77
2022-11-24T05:55:12.274Z,-0.86
2022-11-24T05:57:38.812Z,-0.85
2022-11-24T06:00:06.562Z,-0.85
2022-11-24T06:02:33.278Z,-0.91
2022-11-24T06:04:59.864Z,-0.82
2022-11-24T06:07:26.408Z,-0.81
2022-11-24T06:09:52.950Z,-0.86
2022-11-24T06:12:19.762Z,-0.85
2022-11-24T06:14:46.332Z,-0.72
2022-11-24T06:17:13.292Z,-0.67
2022-11-24T06:19:42.115Z,-0.71
2022-11-24T06:22:08.949Z,-0.72
2022-11-24T06:24:35.848Z,-0.60
2022-11-24T06:27:02.507Z,-0.76
2022-11-24T06:29:28.958Z,-0.79
2022-11-24T06:31:55.543Z,-0.80
2022-11-24T06:34:22.097Z,-0.76
2022-11-24T06:36:48.660Z,-0.70
2022-11-24T06:39:15.427Z,-0.68
2022-11-24T06:41:41.967Z,-0.64
2022-11-24T06:44:08.496Z,-0.65
2022-11-24T06:46:35.068Z,-0.66
2022-11-24T06:49:01.594Z,-0.53
2022-11-24T06:51:28.266Z,-0.38
2022-11-24T06:53:54.944Z,-0.37
2022-11-24T06:56:22.043Z,-0.32
2022-11-24T06:58:50.852Z,-0.42
2022-11-24T07:01:23.219Z,-0.27
2022-11-24T07:03:51.227Z,-0.25
2022-11-24T07:06:18.907Z,-0.55
2022-11-24T07:08:45.713Z,-0.38
2022-11-24T07:11:15.454Z,-0.51
2022-11-24T07:13:43.728Z,-0.39
2022-11-24T07:16:14.529Z,-0.51
2022-11-24T07:18:42.311Z,-0.44
2022-11-24T07:21:08.763Z,-0.49
2022-11-24T07:23:35.450Z,-0.56
2022-11-24T07:26:06.667Z,-0.44
2022-11-24T07:28:34.504Z,-0.51
2022-11-24T07:31:12.452Z,-0.52
2022-11-24T07:33:39.633Z,-0.49
2022-11-24T07:36:08.251Z,-0.41
2022-11-24T07:38:35.868Z,-0.51
2022-11-24T07:41:07.812Z,-0.42
2022-11-24T07:43:36.088Z,-0.32
2022-11-24T07:46:03.918Z,-0.18
2022-11-24T07:48:30.493Z,-0.12
2022-11-24T07:50:59.859Z,-0.18
2022-11-24T07:53:27.159Z,-0.20
2022-11-24T07:55:57.612Z,-0.21
2022-11-24T07:58:27.609Z,-0.36
2022-11-24T08:00:57.704Z,-0.24
2022-11-24T08:03:25.192Z,-0.19
2022-11-24T08:06:22.209Z,-0.20
2022-11-24T08:08:42.801Z,-0.22
2022-11-24T08:11:15.762Z,-0.22
2022-11-24T08:13:43.223Z,-0.17
2022-11-24T08:16:12.997Z,0.02
2022-11-24T08:18:39.655Z,0.13
2022-11-24T08:21:07.168Z,0.19
2022-11-24T08:23:34.319Z,0.30
2022-11-24T08:26:06.066Z,0.31
2022-11-24T08:28:32.976Z,0.16
2022-11-24T08:31:08.384Z,0.29
2022-11-24T08:33:35.005Z,0.27
2022-11-24T08:36:09.628Z,0.33
2022-11-24T08:38:36.359Z,0.23
2022-11-24T08:41:05.505Z,0.24
2022-11-24T08:43:32.882Z,0.25
2022-11-24T08:46:04.622Z,0.35
2022-11-24T08:48:31.157Z,0.47
2022-11-24T08:50:59.125Z,0.68
2022-11-24T08:53:25.675Z,0.60
2022-11-24T08:55:52.205Z,0.58
2022-11-24T08:58:18.842Z,0.80
2022-11-24T09:00:45.395Z,0.83
2022-11-24T09:03:12.528Z,0.76
2022-11-24T09:05:54.469Z,0.67
2022-11-24T09:08:20.989Z,0.51
2022-11-24T09:10:47.614Z,0.47
2022-11-24T09:13:14.185Z,0.39
2022-11-24T09:15:41.460Z,0.25
2022-11-24T09:18:08.084Z,0.23
2022-11-24T09:20:34.694Z,0.37
2022-11-24T09:23:01.274Z,0.50
2022-11-24T09:25:27.862Z,0.45
2022-11-24T09:27:54.423Z,0.61
2022-11-24T09:30:21.118Z,0.51
2022-11-24T09:32:47.848Z,0.50
2022-11-24T09:35:14.576Z,0.41
2022-11-24T09:37:41.155Z,0.50
2022-11-24T09:40:10.649Z,0.43
2022-11-24T09:42:43.074Z,0.48
2022-11-24T09:45:19.985Z,0.33
2022-11-24T09:48:04.161Z,0.45
2022-11-24T09:50:36.352Z,0.33
2022-11-24T09:53:05.656Z,0.24
2022-11-24T09:55:48.599Z,0.07
2022-11-24T09:58:48.518Z,-0.08
2022-11-24T10:01:24.616Z,0.09
2022-11-24T10:03:52.344Z,-0.11
2022-11-24T10:06:31.019Z,0.04
2022-11-24T10:09:25.390Z,0.12
2022-11-24T10:12:06.051Z,0.21
2022-11-24T10:15:09.733Z,-0.14
2022-11-24T10:17:54.790Z,-0.12
2022-11-24T10:20:45.137Z,-0.18
2022-11-24T10:23:53.010Z,-0.04
2022-11-24T10:26:40.390Z,0.01
2022-11-24T10:29:12.711Z,0.07
2022-11-24T10:31:45.613Z,0.07
2022-11-24T10:34:22.134Z,0.02
2022-11-24T10:37:01.323Z,0.08
2022-11-24T10:39:46.009Z,-0.09
2022-11-24T10:42:33.665Z,-0.24
2022-11-24T10:45:02.455Z,-0.04
2022-11-24T10:47:30.327Z,0.12
2022-11-24T10:50:00.322Z,0.14
2022-11-24T10:52:30.259Z,-0.03
2022-11-24T10:55:05.260Z,-0.05
2022-11-24T10:57:34.556Z,-0.09
2022-11-24T11:00:04.360Z,-0.01
2022-11-24T11:02:37.594Z,-0.09
2022-11-24T11:05:43.091Z,-0.29
2022-11-24T11:08:21.544Z,-0.25
2022-11-24T11:10:50.695Z,-0.26
2022-11-24T11:13:28.842Z,-0.22
2022-11-24T11:15:57.273Z,-0.32
2022-11-24T11:18:31.808Z,-0.30
2022-11-24T11:21:00.907Z,-0.50
2022-11-24T11:23:45.629Z,-0.53
2022-11-24T11:26:24.401Z,-0.52
2022-11-24T11:34:53.544Z,-0.56
2022-11-24T11:37:21.630Z,-0.56
2022-11-24T11:39:54.224Z,-0.52
2022-11-24T11:43:01.195Z,-0.49
2022-11-24T11:45:36.007Z,-0.53
2022-11-24T11:48:03.494Z,-0.48
2022-11-24T11:51:06.631Z,-0.44
2022-11-24T11:53:40.562Z,-0.54
2022-11-24T11:56:24.347Z,-0.52
2022-11-24T11:59:03.034Z,-0.60
2022-11-24T12:01:51.089Z,-0.61
2022-11-24T12:04:45.354Z,-0.55
2022-11-24T12:07:25.886Z,-0.64
2022-11-24T12:10:22.477Z,-0.68
2022-11-24T12:12:57.886Z,-0.57
2022-11-24T12:15:38.680Z,-0.50
2022-11-24T12:18:49.005Z,-0.57
2022-11-24T12:21:12.634Z,-0.69
2022-11-24T12:23:56.974Z,-0.71
2022-11-24T12:26:46.552Z,-0.97
2022-11-24T12:29:37.306Z,-0.85
2022-11-24T12:32:36.642Z,-1.08
2022-11-24T12:35:05.947Z,-1.01
2022-11-24T12:37:40.734Z,-1.07
2022-11-24T12:40:14.655Z,-1.10
2022-11-24T12:42:49.217Z,-1.25
2022-11-24T12:45:20.854Z,-1.12
2022-11-24T12:48:01.027Z,-1.26
2022-11-24T12:50:30.448Z,-1.25
2022-11-24T12:53:05.994Z,-1.17
2022-11-24T12:55:33.355Z,-1.24
2022-11-24T12:58:25.574Z,-1.24
2022-11-24T13:00:57.998Z,-1.26
2022-11-24T13:03:35.856Z,-1.26
2022-11-24T13:06:24.333Z,-1.18
2022-11-24T13:08:51.131Z,-1.24
2022-11-24T13:11:21.002Z,-1.22
2022-11-24T13:14:11.782Z,-1.22
2022-11-24T13:19:44.687Z,-1.32
2022-11-24T13:22:16.644Z,-1.32
2022-11-24T13:24:43.623Z,-1.43
2022-11-24T13:27:16.007Z,-1.38
2022-11-24T13:29:48.177Z,-1.39
2022-11-24T13:32:14.657Z,-1.39
2022-11-24T13:34:41.138Z,-1.42
2022-11-24T13:37:26.814Z,-1.54
2022-11-24T13:40:03.612Z,-1.52
2022-11-24T13:42:43.367Z,-1.44
2022-11-24T13:45:40.351Z,-1.59
2022-11-24T13:48:19.759Z,-1.56
2022-11-24T13:50:52.568Z,-1.66
2022-11-24T13:53:27.855Z,-1.63
2022-11-24T13:56:03.900Z,-1.76
2022-11-24T13:58:31.815Z,-1.84
2022-11-24T14:01:03.208Z,-1.85
2022-11-24T14:03:34.083Z,-1.72
2022-11-24T14:06:02.094Z,-1.90
2022-11-24T14:08:37.072Z,-2.00
2022-11-24T14:11:13.186Z,-2.02
2022-11-24T14:13:40.291Z,-2.05
2022-11-24T14:16:09.629Z,-2.10
2022-11-24T14:18:38.425Z,-1.98
2022-11-24T14:21:20.364Z,-2.00
2022-11-24T14:23:51.294Z,-2.13
2022-11-24T14:26:42.255Z,-2.10
2022-11-24T14:29:21.216Z,-2.00
2022-11-24T14:31:55.812Z,-1.98
2022-11-24T14:34:23.869Z,-2.06
2022-11-24T14:36:52.306Z,-2.05
2022-11-24T14:39:23.796Z,-1.93
2022-11-24T14:42:06.481Z,-1.94
2022-11-24T14:44:42.091Z,-1.91
2022-11-24T14:47:32.430Z,-1.85
2022-11-24T14:50:15.330Z,-1.96
2022-11-24T14:52:49.866Z,-1.94
2022-11-24T14:55:26.838Z,-1.99
2022-11-24T14:57:53.704Z,-1.95
2022-11-24T15:00:30.755Z,-1.89
2022-11-24T15:03:17.677Z,-1.89
2022-11-24T15:05:50.469Z,-1.85
2022-11-24T15:11:00.520Z,-1.98
2022-11-24T15:13:36.959Z,-2.06
2022-11-24T15:16:14.907Z,-2.13
2022-11-24T15:18:42.994Z,-2.06
2022-11-24T15:21:14.271Z,-1.92
2022-11-24T15:24:05.603Z,-1.94
2022-11-24T15:26:38.272Z,-1.92
2022-11-24T15:29:08.205Z,-1.90
2022-11-24T15:31:34.804Z,-1.89
2022-11-24T15:34:01.394Z,-1.90
2022-11-24T15:36:28.022Z,-1.94
2022-11-24T15:38:54.578Z,-1.91
2022-11-24T15:41:27.780Z,-1.96
2022-11-24T15:43:54.360Z,-1.88
2022-11-24T15:46:20.937Z,-1.69
2022-11-24T15:48:47.458Z,-1.84
2022-11-24T15:51:14.498Z,-1.95
2022-11-24T15:53:45.051Z,-1.96
2022-11-24T15:56:22.026Z,-2.03
2022-11-24T15:58:48.511Z,-1.93
2022-11-24T16:01:15.169Z,-1.76
2022-11-24T16:03:47.357Z,-1.97
2022-11-24T16:06:24.221Z,-1.98
2022-11-24T16:08:53.906Z,-1.94
2022-11-24T16:11:21.115Z,-1.89
2022-11-24T16:13:52.389Z,-1.91
2022-11-24T16:16:20.806Z,-2.07
2022-11-24T16:18:47.392Z,-2.04
2022-11-24T16:21:14.033Z,-2.04
2022-11-24T16:23:40.809Z,-2.02
2022-11-24T16:26:07.278Z,-2.06
2022-11-24T16:28:35.251Z,-2.19
2022-11-24T16:31:02.749Z,-2.19
2022-11-24T16:33:29.904Z,-2.30
2022-11-24T16:35:56.675Z,-2.27
2022-11-24T16:38:23.325Z,-2.13
2022-11-24T16:40:54.475Z,-2.03
2022-11-24T16:43:20.980Z,-2.19
2022-11-24T16:46:03.226Z,-2.15
2022-11-24T16:48:32.516Z,-2.05
2022-11-24T16:51:05.790Z,-1.98
2022-11-24T16:53:32.443Z,-2.09
2022-11-24T16:55:58.990Z,-2.00
2022-11-24T16:58:25.679Z,-2.17
2022-11-24T17:00:52.186Z,-2.18
2022-11-24T17:03:18.741Z,-2.21
2022-11-24T17:05:56.919Z,-2.27
2022-11-24T17:08:23.768Z,-2.27
2022-11-24T17:10:50.317Z,-2.18
2022-11-24T17:13:16.941Z,-2.15
2022-11-24T17:15:48.425Z,-2.16
2022-11-24T17:18:24.447Z,-2.10
2022-11-24T17:20:51.592Z,-2.15
2022-11-24T17:23:18.105Z,-2.19
2022-11-24T17:25:44.718Z,-2.09
2022-11-24T17:28:11.221Z,-2.16
2022-11-24T17:30:37.749Z,-2.18
2022-11-24T17:33:04.364Z,-2.15
2022-11-24T17:35:30.785Z,-2.18
2022-11-24T17:37:57.296Z,-2.14
2022-11-24T17:40:28.698Z,-2.12
2022-11-24T17:42:59.607Z,-2.22
2022-11-24T17:45:27.743Z,-2.31
2022-11-24T17:47:54.795Z,-2.34
2022-11-24T17:50:25.630Z,-2.40
2022-11-24T17:52:53.576Z,-2.31
2022-11-24T17:55:20.200Z,-2.29
2022-11-24T17:57:46.793Z,-2.39
2022-11-24T18:00:14.043Z,-2.41
2022-11-24T18:02:40.605Z,-2.45
2022-11-24T18:05:07.558Z,-2.34
2022-11-24T18:07:35.853Z,-2.49
2022-11-24T18:10:02.696Z,-2.43
2022-11-24T18:12:29.227Z,-2.31
2022-11-24T18:14:55.851Z,-2.33
2022-11-24T18:17:22.379Z,-2.38
2022-11-24T18:19:48.924Z,-2.38
2022-11-24T18:22:15.427Z,-2.35
2022-11-24T18:24:41.991Z,-2.41
2022-11-24T18:27:08.427Z,-2.53
2022-11-24T18:29:35.017Z,-2.51
2022-11-24T18:32:01.558Z,-2.58
2022-11-24T18:34:28.096Z,-2.50
2022-11-24T18:36:54.683Z,-2.53
2022-11-24T18:39:21.235Z,-2.65
2022-11-24T18:41:47.728Z,-2.60
2022-11-24T18:44:14.376Z,-2.63
2022-11-24T18:46:40.969Z,-2.70
2022-11-24T18:49:07.639Z,-2.63
2022-11-24T18:51:34.257Z,-2.57
2022-11-24T18:54:00.856Z,-2.63
2022-11-24T18:56:27.547Z,-2.54
2022-11-24T18:58:55.705Z,-2.66
2022-11-24T19:01:25.608Z,-2.58
2022-11-24T19:03:54.746Z,-2.57
2022-11-24T19:06:32.971Z,-2.65
2022-11-24T19:09:15.137Z,-2.66
2022-11-24T19:11:44.139Z,-2.69
2022-11-24T19:14:13.750Z,-2.73
2022-11-24T19:16:40.935Z,-2.62
2022-11-24T19:19:08.350Z,-2.79
2022-11-24T19:21:38.102Z,-2.81
2022-11-24T19:24:06.046Z,-2.94
2022-11-24T19:26:34.019Z,-3.04
2022-11-24T19:29:00.795Z,-3.05
2022-11-24T19:31:27.493Z,-2.95
2022-11-24T19:33:54.169Z,-3.01
2022-11-24T19:36:22.087Z,-3.00
2022-11-24T19:38:53.363Z,-3.01
2022-11-24T19:41:22.726Z,-3.06
2022-11-24T19:43:49.645Z,-3.09
2022-11-24T19:46:18.587Z,-3.12
2022-11-24T19:48:47.447Z,-3.15
2022-11-24T19:51:19.104Z,-3.24
2022-11-24T19:53:46.164Z,-3.18
2022-11-24T19:56:15.168Z,-3.18
2022-11-24T19:58:42.210Z,-3.15
2022-11-24T20:01:17.031Z,-3.21
2022-11-24T20:03:46.136Z,-3.20
2022-11-24T20:06:14.929Z,-3.10
2022-11-24T20:08:42.965Z,-3.16
2022-11-24T20:11:12.570Z,-3.10
2022-11-24T20:13:41.697Z,-3.19
2022-11-24T20:16:13.793Z,-3.19
2022-11-24T20:18:42.591Z,-3.16
2022-11-24T20:21:21.195Z,-3.16
2022-11-24T20:23:54.277Z,-3.12
2022-11-24T20:26:22.274Z,-3.11
2022-11-24T20:28:49.729Z,-3.21
2022-11-24T20:31:18.671Z,-3.19
2022-11-24T20:33:45.992Z,-3.16
2022-11-24T20:36:18.849Z,-3.37
2022-11-24T20:38:46.518Z,-3.26
2022-11-24T20:41:24.921Z,-3.30
2022-11-24T20:43:53.239Z,-3.27
2022-11-24T20:46:23.146Z,-3.42
2022-11-24T20:48:50.327Z,-3.31
2022-11-24T20:51:17.905Z,-3.46
2022-11-24T20:53:44.740Z,-3.33
2022-11-24T20:56:17.591Z,-3.43
2022-11-24T20:58:44.231Z,-3.43
2022-11-24T21:01:16.846Z,-3.49
2022-11-24T21:03:44.369Z,-3.40
2022-11-24T21:06:12.934Z,-3.39
2022-11-24T21:08:41.851Z,-3.35
2022-11-24T21:11:11.450Z,-3.36
2022-11-24T21:13:39.909Z,-3.33
2022-11-24T21:16:26.201Z,-3.32
2022-11-24T21:18:55.552Z,-3.29
2022-11-24T21:21:23.822Z,-3.12
2022-11-24T21:23:51.351Z,-3.27
2022-11-24T21:26:19.230Z,-3.30
2022-11-24T21:28:47.333Z,-3.32
2022-11-24T21:31:20.324Z,-3.31
2022-11-24T21:33:52.387Z,-3.27
2022-11-24T21:36:21.562Z,-3.39
2022-11-24T21:38:55.880Z,-3.32
2022-11-24T21:41:23.804Z,-3.53
2022-11-24T21:43:52.381Z,-3.44
2022-11-24T21:46:19.164Z,-3.49
2022-11-24T21:48:45.691Z,-3.32
2022-11-24T21:51:16.965Z,-3.35
2022-11-24T21:53:44.887Z,-3.28
2022-11-24T21:56:13.810Z,-3.24
2022-11-24T21:58:48.069Z,-3.45
2022-11-24T22:01:16.954Z,-3.44
2022-11-24T22:03:43.879Z,-3.40
2022-11-24T22:06:10.655Z,-3.49
2022-11-24T22:08:38.018Z,-3.49
2022-11-24T22:11:11.887Z,-3.45
2022-11-24T22:13:38.790Z,-3.55
2022-11-24T22:16:11.335Z,-3.62
2022-11-24T22:18:40.274Z,-3.56
2022-11-24T22:21:10.212Z,-3.61
2022-11-24T22:23:37.076Z,-3.59
2022-11-24T22:26:06.203Z,-3.61
2022-11-24T22:28:34.151Z,-3.63
2022-11-24T22:31:08.293Z,-3.56
2022-11-24T22:33:35.429Z,-3.58
2022-11-24T22:36:02.536Z,-3.64
2022-11-24T22:38:30.409Z,-3.71
2022-11-24T22:41:09.140Z,-3.67
2022-11-24T22:43:36.764Z,-3.62
2022-11-24T22:46:11.509Z,-3.79
2022-11-24T22:48:38.731Z,-3.81
2022-11-24T22:51:07.743Z,-3.75
2022-11-24T22:53:34.641Z,-3.77
2022-11-24T22:56:06.082Z,-3.58
2022-11-24T22:58:33.507Z,-3.72
2022-11-24T23:01:16.673Z,-3.55
2022-11-24T23:03:44.055Z,-3.75
2022-11-24T23:06:14.115Z,-3.67
2022-11-24T23:08:41.026Z,-3.66
2022-11-24T23:11:19.677Z,-3.41
2022-11-24T23:13:46.942Z,-3.43
2022-11-24T23:16:15.656Z,-3.56
2022-11-24T23:18:42.761Z,-3.48
2022-11-24T23:21:15.407Z,-3.44
2022-11-24T23:23:42.807Z,-3.39
2022-11-24T23:26:14.321Z,-3.35
2022-11-24T23:28:42.282Z,-3.32
2022-11-24T23:31:12.462Z,-3.57
2022-11-24T23:33:39.630Z,-3.69
2022-11-24T23:36:09.134Z,-3.80
2022-11-24T23:38:36.075Z,-3.74
2022-11-24T23:41:05.340Z,-3.88
2022-11-24T23:43:33.227Z,-3.86
2022-11-24T23:46:07.968Z,-3.89
2022-11-24T23:48:35.739Z,-3.87
2022-11-24T23:51:13.229Z,-3.96
2022-11-24T23:53:39.830Z,-3.81
2022-11-24T23:56:07.090Z,-3.73
2022-11-24T23:58:34.345Z,-3.84
